Terminal Aerodrome Forecast
Issued by NWS Houston/Galveston, TX

Home | Current Version | Previous Version | Text Only | Print | Product List | Glossary On
Versions: 1 2 3 4 5 6 7 8 9 10 11 12 13 14 15 16 17 18 19 20 21
050
FTUS44 KHGX 221720
TAFGLS
TAF
KGLS 221720Z 2218/2318 06011KT P6SM OVC013
      TEMPO 2218/2219 SCT015 BKN025
     FM222300 10009KT P6SM BKN035
     FM231200 13012KT P6SM VCSH OVC025=

USA.gov is the U.S. government's official web portal to all federal, state and local government web resources and services.